createdAt,value
2023-03-28T00:00:48.458Z,82.40
2023-03-28T00:03:18.841Z,82.50
2023-03-28T00:05:49.059Z,82.50
2023-03-28T00:08:18.037Z,82.50
2023-03-28T00:10:46.701Z,82.60
2023-03-28T00:13:15.332Z,82.70
2023-03-28T00:15:44.598Z,82.70
2023-03-28T00:18:12.764Z,82.70
2023-03-28T00:20:42.703Z,82.70
2023-03-28T00:23:11.991Z,82.80
2023-03-28T00:25:41.964Z,82.80
2023-03-28T00:28:10.393Z,82.60
2023-03-28T00:30:38.360Z,82.60
2023-03-28T00:33:07.700Z,82.60
2023-03-28T00:35:36.534Z,82.60
2023-03-28T00:38:04.709Z,83.40
2023-03-28T00:40:38.585Z,82.70
2023-03-28T00:43:06.585Z,82.60
2023-03-28T00:45:34.772Z,82.50
2023-03-28T00:48:14.760Z,82.50
2023-03-28T00:50:49.901Z,82.40
2023-03-28T00:53:20.474Z,82.40
2023-03-28T00:55:52.356Z,82.40
2023-03-28T00:58:24.795Z,82.30
2023-03-28T01:00:55.021Z,82.20
2023-03-28T01:03:28.038Z,82.10
2023-03-28T01:05:57.964Z,82.20
2023-03-28T01:08:29.646Z,82.30
2023-03-28T01:10:57.758Z,82.20
2023-03-28T01:13:28.877Z,82.20
2023-03-28T01:15:57.318Z,82.10
2023-03-28T01:18:26.937Z,82.10
2023-03-28T01:21:37.745Z,82.10
2023-03-28T01:24:29.397Z,82.10
2023-03-28T01:26:59.813Z,82.00
2023-03-28T01:30:13.266Z,82.00
2023-03-28T01:33:21.151Z,82.00
2023-03-28T01:36:34.209Z,82.00
2023-03-28T01:39:14.205Z,81.90
2023-03-28T01:41:51.335Z,82.00
2023-03-28T01:44:27.558Z,82.10
2023-03-28T01:47:02.521Z,82.10
2023-03-28T01:49:37.242Z,82.30
2023-03-28T01:52:12.870Z,82.20
2023-03-28T01:54:47.531Z,82.20
2023-03-28T01:57:20.266Z,82.20
2023-03-28T01:59:51.819Z,82.40
2023-03-28T02:02:27.729Z,82.30
2023-03-28T02:04:57.950Z,82.20
2023-03-28T02:07:26.899Z,82.20
2023-03-28T02:09:57.436Z,82.20
2023-03-28T02:12:31.122Z,82.20
2023-03-28T02:15:04.131Z,82.10
2023-03-28T02:17:40.188Z,82.50
2023-03-28T02:20:11.627Z,82.10
2023-03-28T02:22:45.605Z,82.10
2023-03-28T02:25:15.220Z,82.10
2023-03-28T02:27:45.672Z,81.90
2023-03-28T02:30:14.186Z,82.00
2023-03-28T02:32:43.968Z,81.90
2023-03-28T02:35:11.995Z,81.90
2023-03-28T02:37:49.401Z,81.80
2023-03-28T02:40:36.789Z,81.80
2023-03-28T02:43:32.286Z,81.60
2023-03-28T02:46:26.786Z,81.70
2023-03-28T02:49:12.743Z,81.60
2023-03-28T02:51:48.069Z,81.70
2023-03-28T02:54:26.628Z,81.60
2023-03-28T02:57:03.256Z,81.50
2023-03-28T02:59:36.464Z,81.60
2023-03-28T03:02:05.068Z,81.60
2023-03-28T03:04:33.423Z,81.50
2023-03-28T03:07:02.542Z,81.50
2023-03-28T03:09:30.387Z,81.50
2023-03-28T03:11:59.695Z,81.60
2023-03-28T03:14:27.474Z,81.70
2023-03-28T03:16:55.382Z,81.70
2023-03-28T03:19:23.111Z,81.70
2023-03-28T03:21:50.978Z,81.70
2023-03-28T03:24:18.705Z,81.90
2023-03-28T03:26:46.575Z,81.90
2023-03-28T03:29:18.305Z,82.10
2023-03-28T03:31:46.155Z,82.00
2023-03-28T03:34:14.041Z,81.90
2023-03-28T03:36:42.729Z,81.80
2023-03-28T03:39:10.726Z,81.80
2023-03-28T03:41:38.515Z,81.80
2023-03-28T03:44:06.674Z,81.80
2023-03-28T03:46:37.362Z,81.80
2023-03-28T03:49:05.260Z,81.80
2023-03-28T03:51:34.101Z,81.80
2023-03-28T03:54:02.021Z,81.70
2023-03-28T03:56:29.940Z,81.60
2023-03-28T03:58:57.978Z,81.60
2023-03-28T04:01:30.325Z,81.60
2023-03-28T04:03:59.590Z,81.60
2023-03-28T04:06:29.446Z,81.60
2023-03-28T04:08:57.204Z,81.60
2023-03-28T04:11:25.238Z,81.70
2023-03-28T04:13:53.330Z,81.70
2023-03-28T04:16:21.585Z,81.70
2023-03-28T04:18:52.796Z,81.70
2023-03-28T04:21:27.440Z,81.50
2023-03-28T04:23:55.668Z,81.70
2023-03-28T04:26:25.847Z,81.80
2023-03-28T04:28:54.942Z,81.90
2023-03-28T04:31:28.794Z,81.90
2023-03-28T04:33:56.773Z,81.90
2023-03-28T04:36:27.085Z,82.00
2023-03-28T04:38:58.241Z,82.00
2023-03-28T04:41:26.171Z,82.00
2023-03-28T04:43:54.020Z,82.00
2023-03-28T04:46:22.071Z,81.90
2023-03-28T04:48:49.888Z,82.00
2023-03-28T04:51:28.589Z,82.10
2023-03-28T04:53:56.539Z,82.00
2023-03-28T04:56:24.338Z,82.10
2023-03-28T04:58:52.088Z,82.00
2023-03-28T05:01:20.010Z,82.10
2023-03-28T05:03:48.299Z,82.00
2023-03-28T05:06:16.226Z,81.80
2023-03-28T05:08:45.473Z,81.80
2023-03-28T05:11:13.521Z,81.80
2023-03-28T05:13:41.887Z,81.90
2023-03-28T05:16:09.878Z,81.90
2023-03-28T05:18:37.807Z,81.80
2023-03-28T05:21:06.057Z,81.80
2023-03-28T05:23:33.786Z,81.80
2023-03-28T05:26:03.246Z,81.70
2023-03-28T05:28:31.333Z,81.70
2023-03-28T05:30:59.494Z,81.70
2023-03-28T05:33:27.560Z,81.70
2023-03-28T05:35:55.381Z,81.60
2023-03-28T05:38:23.286Z,81.60
2023-03-28T05:40:51.102Z,81.60
2023-03-28T05:43:20.159Z,81.70
2023-03-28T05:45:48.251Z,81.70
2023-03-28T05:48:16.220Z,81.80
2023-03-28T05:50:45.480Z,81.60
2023-03-28T05:53:13.266Z,81.50
2023-03-28T05:55:41.923Z,81.60
2023-03-28T05:58:09.790Z,81.60
2023-03-28T06:00:38.979Z,81.60
2023-03-28T06:03:07.389Z,81.80
2023-03-28T06:05:35.606Z,81.80
2023-03-28T06:08:03.652Z,82.00
2023-03-28T06:10:31.884Z,82.00
2023-03-28T06:12:59.682Z,81.90
2023-03-28T06:15:28.018Z,81.90
2023-03-28T06:17:58.070Z,81.90
2023-03-28T06:20:25.999Z,81.90
2023-03-28T06:22:57.020Z,81.80
2023-03-28T06:25:25.229Z,81.80
2023-03-28T06:27:56.271Z,81.70
2023-03-28T06:30:24.172Z,81.90
2023-03-28T06:32:54.743Z,82.10
2023-03-28T06:35:28.223Z,82.30
2023-03-28T06:37:58.479Z,82.40
2023-03-28T06:40:26.736Z,82.30
2023-03-28T06:42:54.595Z,82.40
2023-03-28T06:45:22.385Z,82.30
2023-03-28T06:47:51.008Z,82.10
2023-03-28T06:50:19.340Z,82.10
2023-03-28T06:52:48.400Z,82.30
2023-03-28T06:55:16.212Z,82.60
2023-03-28T06:57:44.037Z,82.70
2023-03-28T07:00:12.756Z,82.80
2023-03-28T07:02:40.702Z,82.90
2023-03-28T07:05:09.129Z,82.80
2023-03-28T07:07:36.960Z,82.70
2023-03-28T07:10:07.423Z,82.90
2023-03-28T07:12:35.500Z,83.10
2023-03-28T07:15:03.271Z,83.10
2023-03-28T07:17:31.056Z,83.10
2023-03-28T07:19:58.804Z,82.90
2023-03-28T07:22:27.256Z,82.80
2023-03-28T07:24:55.284Z,82.60
2023-03-28T07:27:25.092Z,82.70
2023-03-28T07:29:52.837Z,82.70
2023-03-28T07:32:20.892Z,83.00
2023-03-28T07:34:48.694Z,82.60
2023-03-28T07:37:16.613Z,82.60
2023-03-28T07:39:44.756Z,82.70
2023-03-28T07:42:13.234Z,82.70
2023-03-28T07:44:44.866Z,82.60
2023-03-28T07:47:12.632Z,82.70
2023-03-28T07:49:41.023Z,82.70
2023-03-28T07:52:09.036Z,82.70
2023-03-28T07:54:37.419Z,82.80
2023-03-28T07:57:06.125Z,82.80
2023-03-28T07:59:34.011Z,82.90
2023-03-28T08:02:03.092Z,82.90
2023-03-28T08:04:31.169Z,82.90
2023-03-28T08:07:00.217Z,82.90
2023-03-28T08:09:29.339Z,83.00
2023-03-28T08:11:58.046Z,83.00
2023-03-28T08:14:26.122Z,83.00
2023-03-28T08:16:54.044Z,83.10
2023-03-28T08:19:23.180Z,83.20
2023-03-28T08:21:51.060Z,83.20
2023-03-28T08:24:28.806Z,83.30
2023-03-28T08:27:01.625Z,83.40
2023-03-28T08:29:29.408Z,84.30
2023-03-28T08:31:57.558Z,83.90
2023-03-28T08:34:27.020Z,84.20
2023-03-28T08:36:54.804Z,84.20
2023-03-28T08:39:23.265Z,84.10
2023-03-28T08:42:25.302Z,84.00
2023-03-28T08:45:20.073Z,84.10
2023-03-28T08:47:56.309Z,84.30
2023-03-28T08:50:30.813Z,84.60
2023-03-28T08:52:59.093Z,84.80
2023-03-28T08:55:33.704Z,85.00
2023-03-28T08:58:01.984Z,84.70
2023-03-28T09:00:32.364Z,84.60
2023-03-28T09:03:00.942Z,84.30
2023-03-28T09:05:37.942Z,85.20
2023-03-28T09:08:23.430Z,84.50
2023-03-28T09:10:57.482Z,84.30
2023-03-28T09:13:34.019Z,84.20
2023-03-28T09:16:25.847Z,84.20
2023-03-28T09:19:11.427Z,84.10
2023-03-28T09:21:59.572Z,84.10
2023-03-28T09:24:47.991Z,84.20
2023-03-28T09:27:21.862Z,84.30
2023-03-28T09:29:50.848Z,84.30
2023-03-28T09:32:23.770Z,84.30
2023-03-28T09:34:52.658Z,84.40
2023-03-28T09:37:30.500Z,84.40
2023-03-28T09:40:07.891Z,84.50
2023-03-28T09:42:45.095Z,84.60
2023-03-28T09:45:30.231Z,84.80
2023-03-28T09:47:58.204Z,85.00
2023-03-28T09:50:26.376Z,85.30
2023-03-28T09:52:58.671Z,85.60
2023-03-28T09:55:30.111Z,85.60
2023-03-28T09:58:02.705Z,85.40
2023-03-28T10:00:30.653Z,85.50
2023-03-28T10:02:58.489Z,85.30
2023-03-28T10:05:36.751Z,85.20
2023-03-28T10:08:20.188Z,85.00
2023-03-28T10:10:56.705Z,85.10
2023-03-28T10:13:24.788Z,85.30
2023-03-28T10:15:53.479Z,85.60
2023-03-28T10:18:22.919Z,85.80
2023-03-28T10:20:52.234Z,85.70
2023-03-28T10:23:23.211Z,85.50
2023-03-28T10:25:53.459Z,85.50
2023-03-28T10:28:29.872Z,85.50
2023-03-28T10:31:01.576Z,85.40
2023-03-28T10:33:33.945Z,85.40
2023-03-28T10:36:03.743Z,85.30
2023-03-28T10:38:39.483Z,85.20
2023-03-28T10:41:11.589Z,85.20
2023-03-28T10:43:41.623Z,85.00
2023-03-28T10:46:16.021Z,85.30
2023-03-28T10:48:49.666Z,86.30
2023-03-28T10:51:22.061Z,85.90
2023-03-28T10:54:11.562Z,86.00
2023-03-28T10:56:43.119Z,86.10
2023-03-28T10:59:33.649Z,86.10
2023-03-28T11:02:19.581Z,86.00
2023-03-28T11:05:00.683Z,85.80
2023-03-28T11:07:34.154Z,85.80
2023-03-28T11:10:11.994Z,85.60
2023-03-28T11:12:56.608Z,85.50
2023-03-28T11:15:31.548Z,85.50
2023-03-28T11:18:11.644Z,85.50
2023-03-28T11:20:50.856Z,85.60
2023-03-28T11:23:45.671Z,85.60
2023-03-28T11:26:17.941Z,85.60
2023-03-28T11:28:56.017Z,85.60
2023-03-28T11:31:28.113Z,85.60
2023-03-28T11:34:00.242Z,85.70
2023-03-28T11:36:33.949Z,85.60
2023-03-28T11:39:07.673Z,85.70
2023-03-28T11:41:39.584Z,85.70
2023-03-28T11:44:16.538Z,85.80
2023-03-28T11:46:50.998Z,86.00
2023-03-28T11:49:24.317Z,86.00
2023-03-28T11:51:59.223Z,85.90
2023-03-28T11:54:34.393Z,86.10
2023-03-28T11:57:09.701Z,86.20
2023-03-28T11:59:44.154Z,86.40
2023-03-28T12:02:23.206Z,86.40
2023-03-28T12:04:56.742Z,86.40
2023-03-28T12:07:32.492Z,86.30
2023-03-28T12:10:08.800Z,86.40
2023-03-28T12:12:48.401Z,86.50
2023-03-28T12:15:19.335Z,86.40
2023-03-28T12:17:50.728Z,86.10
2023-03-28T12:20:28.052Z,86.20
2023-03-28T12:22:59.981Z,86.30
2023-03-28T12:25:33.890Z,86.40
2023-03-28T12:28:11.038Z,86.50
2023-03-28T12:30:58.728Z,86.50
2023-03-28T12:33:44.519Z,86.60
2023-03-28T12:36:20.511Z,86.40
2023-03-28T12:38:57.795Z,86.40
2023-03-28T12:41:29.202Z,86.40
2023-03-28T12:44:00.806Z,86.40
2023-03-28T12:46:33.931Z,86.30
2023-03-28T12:49:05.916Z,86.10
2023-03-28T12:51:37.790Z,86.00
2023-03-28T12:54:22.218Z,85.90
2023-03-28T12:57:02.428Z,85.70
2023-03-28T13:00:00.294Z,85.70
2023-03-28T13:02:32.529Z,85.70
2023-03-28T13:05:10.413Z,85.80
2023-03-28T13:08:00.328Z,86.00
2023-03-28T13:10:36.082Z,86.20
2023-03-28T13:13:21.161Z,86.10
2023-03-28T13:16:07.735Z,86.10
2023-03-28T13:18:36.062Z,86.20
2023-03-28T13:21:07.116Z,86.40
2023-03-28T13:23:38.856Z,86.60
2023-03-28T13:26:07.745Z,86.80
2023-03-28T13:28:42.854Z,86.80
2023-03-28T13:31:20.815Z,86.80
2023-03-28T13:33:50.546Z,86.70
2023-03-28T13:36:26.745Z,86.60
2023-03-28T13:39:09.362Z,86.70
2023-03-28T13:41:56.378Z,86.60
2023-03-28T13:44:30.095Z,86.60
2023-03-28T13:46:59.627Z,86.60
2023-03-28T13:49:37.268Z,86.50
2023-03-28T13:52:09.962Z,86.50
2023-03-28T13:54:42.494Z,86.40
2023-03-28T13:57:17.417Z,86.10
2023-03-28T13:59:51.887Z,85.70
2023-03-28T14:02:23.509Z,85.80
2023-03-28T14:04:54.791Z,85.80
2023-03-28T14:07:27.576Z,85.80
2023-03-28T14:09:57.588Z,85.90
2023-03-28T14:12:28.528Z,85.90
2023-03-28T14:14:58.419Z,86.20
2023-03-28T14:17:30.329Z,86.30
2023-03-28T14:20:01.438Z,86.30
2023-03-28T14:22:31.650Z,86.30
2023-03-28T14:25:01.812Z,86.20
2023-03-28T14:27:32.327Z,85.90
2023-03-28T14:30:01.154Z,85.90
2023-03-28T14:32:32.572Z,85.90
2023-03-28T14:35:19.079Z,86.20
2023-03-28T14:37:51.486Z,86.10
2023-03-28T14:40:21.672Z,85.80
2023-03-28T14:42:51.826Z,85.80
2023-03-28T14:45:19.598Z,85.70
2023-03-28T14:47:50.480Z,85.70
2023-03-28T14:50:21.339Z,85.70
2023-03-28T14:52:49.568Z,85.70
2023-03-28T14:55:21.070Z,85.40
2023-03-28T14:57:52.023Z,85.40
2023-03-28T15:00:24.627Z,85.30
2023-03-28T15:02:54.653Z,85.30
2023-03-28T15:05:23.944Z,85.00
2023-03-28T15:07:58.607Z,85.00
2023-03-28T15:10:27.377Z,84.90
2023-03-28T15:13:04.321Z,85.00
2023-03-28T15:15:34.414Z,84.90
2023-03-28T15:18:08.865Z,84.80
2023-03-28T15:20:38.973Z,84.70
2023-03-28T15:23:13.539Z,84.60
2023-03-28T15:25:43.876Z,84.60
2023-03-28T15:28:17.297Z,84.50
2023-03-28T15:30:47.763Z,84.20
2023-03-28T15:33:20.886Z,84.20
2023-03-28T15:35:49.065Z,84.10
2023-03-28T15:38:21.471Z,84.00
2023-03-28T15:40:51.461Z,84.80
2023-03-28T15:43:39.169Z,84.00
2023-03-28T15:46:13.055Z,84.10
2023-03-28T15:48:44.382Z,84.10
2023-03-28T15:51:18.753Z,84.10
2023-03-28T15:53:47.954Z,84.20
2023-03-28T15:56:23.095Z,84.20
2023-03-28T15:58:50.984Z,84.30
2023-03-28T16:01:25.070Z,84.30
2023-03-28T16:04:22.453Z,84.10
2023-03-28T16:06:53.522Z,84.10
2023-03-28T16:09:23.400Z,84.10
2023-03-28T16:11:58.101Z,84.10
2023-03-28T16:14:26.530Z,84.10
2023-03-28T16:16:55.066Z,84.20
2023-03-28T16:19:26.889Z,84.10
2023-03-28T16:21:55.375Z,84.10
2023-03-28T16:24:23.218Z,84.10
2023-03-28T16:26:50.982Z,84.10
2023-03-28T16:29:19.996Z,84.10
2023-03-28T16:31:48.021Z,84.00
2023-03-28T16:34:15.823Z,84.00
2023-03-28T16:36:44.917Z,84.00
2023-03-28T16:39:12.880Z,83.90
2023-03-28T16:41:40.897Z,83.70
2023-03-28T16:44:09.057Z,83.60
2023-03-28T16:46:37.119Z,83.60
2023-03-28T16:49:05.334Z,83.70
2023-03-28T16:51:33.284Z,83.70
2023-03-28T16:54:02.399Z,83.60
2023-03-28T16:56:30.268Z,83.50
2023-03-28T16:58:58.047Z,83.50
2023-03-28T17:01:26.186Z,83.50
2023-03-28T17:03:55.795Z,83.40
2023-03-28T17:06:23.760Z,83.40
2023-03-28T17:08:53.319Z,83.40
2023-03-28T17:11:25.675Z,83.40
2023-03-28T17:13:55.758Z,83.20
2023-03-28T17:16:24.416Z,83.30
2023-03-28T17:18:53.779Z,83.30
2023-03-28T17:21:21.626Z,83.20
2023-03-28T17:23:51.006Z,83.20
2023-03-28T17:26:19.684Z,83.20
2023-03-28T17:28:52.085Z,83.20
2023-03-28T17:31:21.796Z,83.10
2023-03-28T17:33:49.812Z,83.10
2023-03-28T17:36:22.490Z,83.10
2023-03-28T17:38:51.525Z,83.10
2023-03-28T17:41:20.670Z,83.00
2023-03-28T17:43:50.132Z,82.80
2023-03-28T17:46:18.038Z,82.80
2023-03-28T17:48:46.573Z,82.70
2023-03-28T17:51:15.308Z,82.60
2023-03-28T17:53:46.792Z,82.60
2023-03-28T17:56:15.761Z,82.60
2023-03-28T17:58:44.395Z,82.60
2023-03-28T18:01:15.643Z,82.50
2023-03-28T18:03:45.785Z,82.50
2023-03-28T18:06:14.172Z,82.70
2023-03-28T18:08:44.552Z,82.60
2023-03-28T18:11:15.550Z,82.70
2023-03-28T18:13:43.927Z,82.70
2023-03-28T18:16:18.541Z,82.80
2023-03-28T18:18:46.736Z,83.00
2023-03-28T18:21:17.174Z,82.90
2023-03-28T18:23:45.322Z,82.90
2023-03-28T18:26:13.708Z,82.90
2023-03-28T18:28:42.894Z,82.80
2023-03-28T18:31:14.021Z,82.70
2023-03-28T18:33:43.174Z,82.60
2023-03-28T18:36:16.086Z,82.60
2023-03-28T18:38:45.024Z,82.50
2023-03-28T18:41:13.423Z,82.50
2023-03-28T18:43:43.267Z,82.40
2023-03-28T18:46:15.914Z,82.50
2023-03-28T18:48:44.666Z,82.40
2023-03-28T18:51:14.003Z,82.40
2023-03-28T18:53:42.155Z,82.30
2023-03-28T18:56:13.293Z,82.30
2023-03-28T18:58:41.233Z,82.30
2023-03-28T19:01:11.468Z,82.30
2023-03-28T19:03:47.104Z,82.30
2023-03-28T19:06:16.353Z,82.20
2023-03-28T19:08:45.122Z,82.20
2023-03-28T19:11:15.783Z,82.30
2023-03-28T19:13:44.549Z,82.20
2023-03-28T19:16:13.998Z,82.30
2023-03-28T19:18:45.680Z,82.20
2023-03-28T19:21:14.573Z,82.20
2023-03-28T19:23:42.497Z,82.20
2023-03-28T19:26:12.988Z,82.20
2023-03-28T19:28:41.390Z,82.20
2023-03-28T19:31:13.302Z,82.30
2023-03-28T19:33:44.358Z,82.20
2023-03-28T19:36:12.611Z,82.20
2023-03-28T19:38:41.431Z,82.10
2023-03-28T19:41:16.940Z,82.20
2023-03-28T19:43:45.107Z,82.10
2023-03-28T19:46:18.915Z,82.20
2023-03-28T19:48:48.256Z,82.20
2023-03-28T19:51:17.560Z,82.10
2023-03-28T19:53:45.536Z,82.20
2023-03-28T19:56:14.061Z,82.20
2023-03-28T19:58:42.241Z,82.30
2023-03-28T20:01:10.290Z,83.00
2023-03-28T20:03:38.219Z,82.30
2023-03-28T20:06:09.408Z,82.20
2023-03-28T20:08:37.441Z,82.20
2023-03-28T20:11:08.888Z,82.10
2023-03-28T20:13:37.071Z,82.10
2023-03-28T20:16:06.551Z,82.20
2023-03-28T20:18:36.304Z,82.20
2023-03-28T20:21:05.941Z,82.20
2023-03-28T20:23:35.718Z,82.20
2023-03-28T20:26:14.147Z,82.20
2023-03-28T20:28:42.224Z,82.00
2023-03-28T20:31:12.529Z,82.10
2023-03-28T20:33:40.959Z,82.20
2023-03-28T20:36:09.021Z,82.10
2023-03-28T20:38:38.141Z,82.10
2023-03-28T20:41:10.705Z,82.10
2023-03-28T20:43:40.693Z,82.10
2023-03-28T20:46:09.887Z,82.10
2023-03-28T20:48:40.062Z,81.90
2023-03-28T20:51:13.964Z,82.00
2023-03-28T20:53:44.330Z,82.00
2023-03-28T20:56:13.706Z,81.90
2023-03-28T20:58:42.546Z,82.10
2023-03-28T21:01:12.858Z,81.90
2023-03-28T21:03:48.406Z,82.00
2023-03-28T21:06:17.472Z,82.00
2023-03-28T21:08:48.888Z,82.00
2023-03-28T21:11:21.002Z,82.00
2023-03-28T21:13:49.197Z,82.00
2023-03-28T21:16:17.963Z,82.00
2023-03-28T21:18:46.926Z,82.00
2023-03-28T21:21:16.857Z,82.00
2023-03-28T21:23:47.565Z,82.00
2023-03-28T21:26:17.852Z,82.00
2023-03-28T21:28:46.398Z,82.10
2023-03-28T21:31:16.452Z,82.00
2023-03-28T21:33:45.758Z,82.00
2023-03-28T21:36:16.137Z,82.00
2023-03-28T21:38:45.283Z,82.00
2023-03-28T21:41:14.596Z,82.00
2023-03-28T21:43:43.152Z,82.00
2023-03-28T21:46:13.503Z,81.90
2023-03-28T21:48:42.052Z,82.00
2023-03-28T21:51:09.982Z,82.00
2023-03-28T21:53:39.602Z,82.00
2023-03-28T21:56:08.500Z,82.00
2023-03-28T21:58:38.159Z,82.00
2023-03-28T22:01:06.957Z,82.00
2023-03-28T22:03:38.033Z,82.00
2023-03-28T22:06:06.872Z,82.00
2023-03-28T22:08:34.730Z,82.10
2023-03-28T22:11:04.401Z,82.00
2023-03-28T22:13:32.592Z,82.00
2023-03-28T22:16:02.491Z,81.90
2023-03-28T22:18:30.782Z,82.10
2023-03-28T22:21:02.174Z,82.00
2023-03-28T22:23:30.528Z,82.00
2023-03-28T22:25:58.719Z,82.00
2023-03-28T22:28:26.571Z,82.00
2023-03-28T22:30:55.177Z,82.00
2023-03-28T22:33:25.501Z,81.90
2023-03-28T22:35:54.222Z,81.90
2023-03-28T22:38:22.227Z,81.80
2023-03-28T22:40:50.219Z,82.50
2023-03-28T22:43:18.197Z,81.80
2023-03-28T22:45:46.100Z,81.80
2023-03-28T22:48:15.046Z,81.80
2023-03-28T22:50:45.455Z,81.80
2023-03-28T22:53:14.432Z,81.90
2023-03-28T22:55:43.657Z,81.90
2023-03-28T22:58:12.162Z,81.90
2023-03-28T23:00:40.256Z,81.90
2023-03-28T23:03:08.924Z,82.00
2023-03-28T23:05:37.432Z,82.00
2023-03-28T23:08:07.551Z,82.00
2023-03-28T23:10:35.998Z,81.90
2023-03-28T23:13:03.945Z,81.90
2023-03-28T23:15:32.574Z,81.90
2023-03-28T23:18:00.840Z,81.90
2023-03-28T23:20:29.578Z,82.00
2023-03-28T23:22:57.519Z,82.00
2023-03-28T23:25:28.568Z,82.10
2023-03-28T23:27:56.455Z,82.20
2023-03-28T23:30:24.271Z,82.30
2023-03-28T23:32:52.328Z,82.30
2023-03-28T23:35:20.188Z,82.30
2023-03-28T23:37:47.982Z,82.30
2023-03-28T23:40:16.570Z,82.30
2023-03-28T23:42:46.356Z,82.20
2023-03-28T23:45:16.547Z,82.30
2023-03-28T23:47:45.066Z,82.30
2023-03-28T23:50:13.346Z,82.30
2023-03-28T23:52:41.627Z,82.20
2023-03-28T23:55:11.349Z,82.30
2023-03-28T23:57:39.120Z,82.30
